createdAt,value
2022-09-15T00:06:33.379Z,7.00
2022-09-15T00:18:12.377Z,6.30
2022-09-15T00:21:33.276Z,7.35
2022-09-15T00:28:31.953Z,7.18
2022-09-15T00:40:09.570Z,8.32
2022-09-15T00:42:38.128Z,6.43
2022-09-15T00:45:06.307Z,7.63
2022-09-15T00:56:44.186Z,7.97
2022-09-15T00:59:19.074Z,8.05
2022-09-15T01:01:49.799Z,6.35
2022-09-15T01:04:17.744Z,6.78
2022-09-15T01:06:50.456Z,6.57
2022-09-15T01:18:42.705Z,6.28
2022-09-15T01:35:08.657Z,8.43
2022-09-15T01:37:42.419Z,7.10
2022-09-15T01:40:12.687Z,7.20
2022-09-15T01:51:53.699Z,7.00
2022-09-15T01:54:26.667Z,8.02
2022-09-15T01:56:57.222Z,7.38
2022-09-15T02:08:40.907Z,8.05
2022-09-15T02:11:18.523Z,8.35
2022-09-15T02:14:17.346Z,8.00
2022-09-15T02:16:48.778Z,8.10
2022-09-15T02:19:33.001Z,8.40
2022-09-15T02:22:08.971Z,7.10
2022-09-15T02:24:45.041Z,8.18
2022-09-15T02:36:42.554Z,8.02
2022-09-15T02:39:15.556Z,9.20
2022-09-15T02:41:43.626Z,6.60
2022-09-15T02:44:11.239Z,7.10
2022-09-15T02:46:39.804Z,7.15
2022-09-15T03:02:56.305Z,5.72
2022-09-15T03:14:35.590Z,6.75
2022-09-15T03:17:04.002Z,5.25
2022-09-15T03:19:31.869Z,6.18
2022-09-15T03:21:59.526Z,8.80
2022-09-15T03:24:27.014Z,6.18
2022-09-15T03:26:54.554Z,7.68
2022-09-15T03:29:22.087Z,7.03
2022-09-15T03:31:49.857Z,8.32
2022-09-15T03:34:18.740Z,7.13
2022-09-15T03:36:46.387Z,7.38
2022-09-15T03:39:16.319Z,8.98
2022-09-15T03:41:43.846Z,6.45
2022-09-15T03:44:11.414Z,5.63
2022-09-15T03:46:39.156Z,5.60
2022-09-15T03:49:06.945Z,5.68
2022-09-15T03:51:34.669Z,6.20
2022-09-15T03:54:02.134Z,5.88
2022-09-15T03:56:31.870Z,8.23
2022-09-15T03:59:05.644Z,7.07
2022-09-15T04:01:33.534Z,7.40
2022-09-15T04:04:02.022Z,8.13
2022-09-15T04:06:29.644Z,6.30
2022-09-15T04:09:00.221Z,5.53
2022-09-15T04:11:27.910Z,9.52
2022-09-15T04:13:55.980Z,5.60
2022-09-15T04:16:25.196Z,5.47
2022-09-15T04:18:55.932Z,7.72
2022-09-15T04:21:26.605Z,5.13
2022-09-15T04:23:54.425Z,8.90
2022-09-15T04:26:28.203Z,5.03
2022-09-15T04:28:55.842Z,8.07
2022-09-15T04:31:23.446Z,5.80
2022-09-15T04:33:55.636Z,8.73
2022-09-15T04:36:27.098Z,7.28
2022-09-15T04:38:55.402Z,6.15
2022-09-15T04:41:24.983Z,5.50
2022-09-15T04:43:53.020Z,6.63
2022-09-15T04:46:20.897Z,5.93
2022-09-15T04:48:51.926Z,8.10
2022-09-15T04:51:22.429Z,6.95
2022-09-15T04:53:50.652Z,6.95
2022-09-15T04:56:20.961Z,5.47
2022-09-15T04:58:59.501Z,7.07
2022-09-15T05:01:32.230Z,8.07
2022-09-15T05:04:01.864Z,4.45
2022-09-15T05:06:29.390Z,7.88
2022-09-15T05:08:58.101Z,5.32
2022-09-15T05:11:26.841Z,4.85
2022-09-15T05:13:54.635Z,7.20
2022-09-15T05:16:25.089Z,5.13
2022-09-15T05:18:55.028Z,10.50
2022-09-15T05:21:23.975Z,6.00
2022-09-15T05:23:52.890Z,8.48
2022-09-15T05:26:25.954Z,7.85
2022-09-15T05:28:53.860Z,7.78
2022-09-15T05:31:27.368Z,6.25
2022-09-15T05:33:55.461Z,6.85
2022-09-15T05:36:27.651Z,6.53
2022-09-15T05:38:58.880Z,9.38
2022-09-15T05:41:27.793Z,7.63
2022-09-15T05:43:59.632Z,6.15
2022-09-15T05:46:28.064Z,4.90
2022-09-15T05:48:57.189Z,5.82
2022-09-15T05:51:25.144Z,11.40
2022-09-15T05:53:52.946Z,12.73
2022-09-15T05:56:20.962Z,9.57
2022-09-15T05:58:49.328Z,11.25
2022-09-15T06:01:24.863Z,6.93
2022-09-15T06:03:53.707Z,11.95
2022-09-15T06:06:22.400Z,11.35
2022-09-15T06:08:57.015Z,9.15
2022-09-15T06:11:31.135Z,9.82
2022-09-15T06:14:03.772Z,9.95
2022-09-15T06:16:34.520Z,11.45
2022-09-15T06:19:02.690Z,15.15
2022-09-15T06:21:31.506Z,12.65
2022-09-15T06:24:01.157Z,9.25
2022-09-15T06:26:29.064Z,10.50
2022-09-15T06:29:01.376Z,9.77
2022-09-15T06:31:31.670Z,13.00
2022-09-15T06:34:01.831Z,11.43
2022-09-15T06:36:30.841Z,10.40
2022-09-15T06:38:59.010Z,6.50
2022-09-15T06:41:38.191Z,8.52
2022-09-15T06:44:19.662Z,9.57
2022-09-15T06:46:47.814Z,9.40
2022-09-15T06:49:15.831Z,6.78
2022-09-15T06:51:43.276Z,11.50
2022-09-15T06:54:11.059Z,9.85
2022-09-15T06:56:38.600Z,9.18
2022-09-15T06:59:06.106Z,10.77
2022-09-15T07:01:35.947Z,8.63
2022-09-15T07:04:09.819Z,7.82
2022-09-15T07:06:39.352Z,9.40
2022-09-15T07:09:07.461Z,7.03
2022-09-15T07:11:35.084Z,6.80
2022-09-15T07:14:02.680Z,8.48
2022-09-15T07:16:33.907Z,13.45
2022-09-15T07:19:03.528Z,10.50
2022-09-15T07:21:31.052Z,11.55
2022-09-15T07:24:00.716Z,18.35
2022-09-15T07:26:31.480Z,11.55
2022-09-15T07:29:05.603Z,13.45
2022-09-15T07:31:35.569Z,16.23
2022-09-15T07:34:03.608Z,18.05
2022-09-15T07:36:31.274Z,19.73
2022-09-15T07:38:58.875Z,16.92
2022-09-15T07:41:29.424Z,18.02
2022-09-15T07:43:59.062Z,16.48
2022-09-15T07:46:30.965Z,18.48
2022-09-15T07:48:59.002Z,14.63
2022-09-15T07:51:27.003Z,16.77
2022-09-15T07:53:54.704Z,17.95
2022-09-15T07:56:23.913Z,15.23
2022-09-15T07:58:51.872Z,16.65
2022-09-15T08:01:20.309Z,14.40
2022-09-15T08:03:50.085Z,12.13
2022-09-15T08:06:19.958Z,10.82
2022-09-15T08:08:47.522Z,10.90
2022-09-15T08:11:19.226Z,9.00
2022-09-15T08:13:49.452Z,10.57
2022-09-15T08:16:20.114Z,14.73
2022-09-15T08:18:48.936Z,10.35
2022-09-15T08:21:20.327Z,9.68
2022-09-15T08:23:58.554Z,11.23
2022-09-15T08:26:27.868Z,11.25
2022-09-15T08:28:57.826Z,10.40
2022-09-15T08:31:25.534Z,10.15
2022-09-15T08:33:56.265Z,8.57
2022-09-15T08:36:27.906Z,8.18
2022-09-15T08:38:57.371Z,8.50
2022-09-15T08:41:45.447Z,8.02
2022-09-15T08:44:16.215Z,9.55
2022-09-15T08:47:01.468Z,8.57
2022-09-15T08:49:51.026Z,7.13
2022-09-15T08:52:46.968Z,10.20
2022-09-15T08:55:21.120Z,10.27
2022-09-15T08:57:48.667Z,8.95
2022-09-15T09:00:17.021Z,9.88
2022-09-15T09:02:51.464Z,8.43
2022-09-15T09:05:45.777Z,9.80
2022-09-15T09:11:02.393Z,10.27
2022-09-15T09:13:40.759Z,9.40
2022-09-15T09:16:36.781Z,5.85
2022-09-15T09:19:06.990Z,10.70
2022-09-15T09:21:43.261Z,11.85
2022-09-15T09:24:44.924Z,8.57
2022-09-15T09:27:20.551Z,10.07
2022-09-15T09:29:53.490Z,8.50
2022-09-15T09:32:27.441Z,8.50
2022-09-15T09:35:14.598Z,6.38
2022-09-15T09:37:42.045Z,5.75
2022-09-15T09:40:15.721Z,8.15
2022-09-15T09:42:44.785Z,8.07
2022-09-15T09:45:18.617Z,8.40
2022-09-15T09:47:49.178Z,6.25
2022-09-15T09:50:43.642Z,7.00
2022-09-15T09:53:23.913Z,9.88
2022-09-15T09:55:53.321Z,7.38
2022-09-15T09:58:25.733Z,5.78
2022-09-15T10:00:53.687Z,11.60
2022-09-15T10:03:32.667Z,7.68
2022-09-15T10:06:24.894Z,6.85
2022-09-15T10:09:00.410Z,5.82
2022-09-15T10:11:44.135Z,8.00
2022-09-15T10:14:26.219Z,7.72
2022-09-15T10:17:09.161Z,10.10
2022-09-15T10:19:59.524Z,7.10
2022-09-15T10:22:33.857Z,14.43
2022-09-15T10:25:06.837Z,7.93
2022-09-15T10:27:36.851Z,7.10
2022-09-15T10:30:17.199Z,6.00
2022-09-15T10:32:44.724Z,11.65
2022-09-15T10:35:18.731Z,7.18
2022-09-15T10:38:01.117Z,4.68
2022-09-15T10:40:39.276Z,6.38
2022-09-15T10:43:26.987Z,6.90
2022-09-15T10:46:39.542Z,4.70
2022-09-15T10:49:25.676Z,5.03
2022-09-15T10:52:22.951Z,8.60
2022-09-15T10:55:08.165Z,6.93
2022-09-15T10:57:58.568Z,4.70
2022-09-15T11:00:39.060Z,7.80
2022-09-15T11:03:43.784Z,6.13
2022-09-15T11:06:34.563Z,9.47
2022-09-15T11:09:09.470Z,7.75
2022-09-15T11:11:54.637Z,9.23
2022-09-15T11:14:48.894Z,7.22
2022-09-15T11:17:45.025Z,7.43
2022-09-15T11:20:38.115Z,11.38
2022-09-15T11:23:11.486Z,7.32
2022-09-15T11:25:50.860Z,7.07
2022-09-15T11:28:24.811Z,8.23
2022-09-15T11:31:17.228Z,10.90
2022-09-15T11:33:58.250Z,9.85
2022-09-15T11:37:03.771Z,7.07
2022-09-15T11:39:41.670Z,9.93
2022-09-15T11:42:15.835Z,8.63
2022-09-15T11:45:23.765Z,7.75
2022-09-15T11:48:02.095Z,11.35
2022-09-15T11:50:47.424Z,9.70
2022-09-15T11:53:29.354Z,8.82
2022-09-15T11:56:13.302Z,8.27
2022-09-15T11:59:07.355Z,5.30
2022-09-15T12:02:02.162Z,6.13
2022-09-15T12:04:35.377Z,6.95
2022-09-15T12:07:23.690Z,6.03
2022-09-15T12:09:51.725Z,7.53
2022-09-15T12:12:22.155Z,10.05
2022-09-15T12:14:53.039Z,5.78
2022-09-15T12:17:33.862Z,8.50
2022-09-15T12:20:04.929Z,6.43
2022-09-15T12:22:44.229Z,7.78
2022-09-15T12:25:20.223Z,8.40
2022-09-15T12:28:24.561Z,7.90
2022-09-15T12:31:14.216Z,7.40
2022-09-15T12:34:07.106Z,6.55
2022-09-15T12:36:55.638Z,8.57
2022-09-15T12:39:57.750Z,5.13
2022-09-15T12:42:37.243Z,4.30
2022-09-15T12:45:19.725Z,4.82
2022-09-15T12:47:57.661Z,5.63
2022-09-15T12:50:38.668Z,5.47
2022-09-15T12:53:25.190Z,6.97
2022-09-15T12:55:56.080Z,7.65
2022-09-15T12:58:46.271Z,7.20
2022-09-15T13:01:22.972Z,7.10
2022-09-15T13:03:50.945Z,9.25
2022-09-15T13:06:27.719Z,8.38
2022-09-15T13:09:08.665Z,5.93
2022-09-15T13:14:35.789Z,5.97
2022-09-15T13:19:59.518Z,6.97
2022-09-15T13:22:38.461Z,7.82
2022-09-15T13:25:17.074Z,6.53
2022-09-15T13:28:00.686Z,7.10
2022-09-15T13:30:52.619Z,5.05
2022-09-15T13:39:55.378Z,8.25
2022-09-15T13:45:48.907Z,7.30
2022-09-15T13:48:40.105Z,5.50
2022-09-15T13:51:27.558Z,10.95
2022-09-15T13:54:05.414Z,12.80
2022-09-15T13:56:42.616Z,7.35
2022-09-15T13:59:26.209Z,9.23
2022-09-15T14:02:10.362Z,7.07
2022-09-15T14:04:57.754Z,5.60
2022-09-15T14:07:38.284Z,8.18
2022-09-15T14:10:56.543Z,11.38
2022-09-15T14:13:06.376Z,9.05
2022-09-15T14:16:10.425Z,6.80
2022-09-15T14:18:45.260Z,6.68
2022-09-15T14:21:19.002Z,8.65
2022-09-15T14:23:56.390Z,8.98
2022-09-15T14:26:35.797Z,7.95
2022-09-15T14:29:18.124Z,8.10
2022-09-15T16:04:23.221Z,8.40
2022-09-15T16:07:00.535Z,6.15
2022-09-15T16:09:37.287Z,8.35
2022-09-15T16:12:10.121Z,9.43
2022-09-15T16:14:37.871Z,9.02
2022-09-15T16:17:05.515Z,6.85
2022-09-15T16:19:33.231Z,7.47
2022-09-15T16:22:06.784Z,4.30
2022-09-15T16:24:34.589Z,8.30
2022-09-15T16:27:04.567Z,9.82
2022-09-15T16:34:23.339Z,10.75
2022-09-15T16:54:24.365Z,6.35
2022-09-15T16:57:37.760Z,8.63
2022-09-15T17:00:11.137Z,6.00
2022-09-15T17:36:56.293Z,9.90
2022-09-15T17:39:26.534Z,10.55
2022-09-15T17:42:11.622Z,7.88
2022-09-15T17:45:32.107Z,6.68
2022-09-15T17:47:37.350Z,7.45
2022-09-15T18:05:35.725Z,9.98
2022-09-15T18:15:55.196Z,8.93
